createdAt,value
2018-07-05T00:00:05.689Z,42.10
2018-07-05T00:04:20.555Z,42.30
2018-07-05T00:08:35.293Z,42.10
2018-07-05T00:12:50.187Z,42.30
2018-07-05T00:17:04.923Z,42.30
2018-07-05T00:21:19.756Z,42.70
2018-07-05T00:25:34.504Z,42.70
2018-07-05T00:29:49.307Z,43.70
2018-07-05T00:34:04.193Z,44.50
2018-07-05T00:38:19.076Z,44.00
2018-07-05T00:42:33.689Z,46.30
2018-07-05T00:46:48.527Z,44.50
2018-07-05T00:51:03.445Z,44.20
2018-07-05T00:55:18.448Z,44.60
2018-07-05T00:59:33.358Z,43.90
2018-07-05T01:03:48.172Z,44.50
2018-07-05T01:08:03.217Z,44.00
2018-07-05T01:12:17.987Z,44.50
2018-07-05T01:16:32.860Z,45.10
2018-07-05T01:20:47.663Z,45.60
2018-07-05T01:25:02.517Z,44.50
2018-07-05T01:29:17.540Z,44.10
2018-07-05T01:33:32.267Z,44.30
2018-07-05T01:37:47.205Z,43.90
2018-07-05T01:42:02.097Z,43.80
2018-07-05T01:46:16.839Z,44.30
2018-07-05T01:50:31.755Z,43.90
2018-07-05T01:54:46.576Z,44.10
2018-07-05T01:59:01.500Z,44.00
2018-07-05T02:03:16.472Z,44.00
2018-07-05T02:07:31.488Z,44.30
2018-07-05T02:11:46.343Z,44.40
2018-07-05T02:16:01.332Z,44.40
2018-07-05T02:20:16.149Z,44.40
2018-07-05T02:24:30.956Z,44.20
2018-07-05T02:28:45.933Z,45.00
2018-07-05T02:37:13.881Z,44.30
2018-07-05T02:41:28.714Z,46.20
2018-07-05T02:45:43.785Z,44.80
2018-07-05T02:49:58.566Z,44.50
2018-07-05T02:58:22.320Z,44.90
2018-07-05T03:02:37.210Z,45.50
2018-07-05T03:06:52.003Z,45.20
2018-07-05T03:11:06.784Z,45.40
2018-07-05T03:15:21.604Z,46.70
2018-07-05T03:19:36.554Z,46.40
2018-07-05T03:23:51.501Z,45.60
2018-07-05T03:28:06.381Z,46.70
2018-07-05T03:32:21.145Z,46.30
2018-07-05T03:36:36.104Z,46.30
2018-07-05T03:40:50.966Z,47.40
2018-07-05T03:45:05.907Z,46.70
2018-07-05T03:49:20.885Z,46.20
2018-07-05T03:53:35.607Z,45.80
2018-07-05T03:57:50.371Z,45.70
2018-07-05T04:02:05.187Z,46.00
2018-07-05T04:06:20.323Z,46.30
2018-07-05T04:10:35.516Z,46.60
2018-07-05T04:14:50.413Z,46.70
2018-07-05T04:19:05.201Z,46.20
2018-07-05T04:27:29.013Z,46.90
2018-07-05T04:31:43.651Z,47.10
2018-07-05T04:35:58.563Z,47.20
2018-07-05T04:40:13.785Z,47.00
2018-07-05T04:44:28.451Z,46.60
2018-07-05T04:48:43.224Z,48.20
2018-07-05T04:52:58.073Z,47.80
2018-07-05T04:57:12.971Z,47.40
2018-07-05T05:01:27.925Z,47.20
2018-07-05T05:05:42.780Z,47.40
2018-07-05T05:09:57.501Z,47.00
2018-07-05T05:14:12.125Z,46.90
2018-07-05T05:18:27.001Z,46.80
2018-07-05T05:22:41.765Z,46.70
2018-07-05T05:26:56.665Z,46.60
2018-07-05T05:31:11.602Z,47.20
2018-07-05T05:35:26.319Z,46.80
2018-07-05T05:39:41.178Z,46.40
2018-07-05T05:43:56.062Z,47.10
2018-07-05T05:48:10.918Z,47.20
2018-07-05T05:52:25.688Z,48.00
2018-07-05T05:56:40.480Z,47.70
2018-07-05T06:00:55.455Z,49.30
2018-07-05T06:05:10.212Z,48.60
2018-07-05T06:09:26.908Z,49.30
2018-07-05T06:13:41.924Z,48.40
2018-07-05T06:17:56.791Z,47.80
2018-07-05T06:22:11.666Z,48.60
2018-07-05T06:26:26.612Z,48.70
2018-07-05T06:30:41.418Z,51.70
2018-07-05T06:34:56.289Z,53.00
2018-07-05T06:39:11.148Z,51.90
2018-07-05T06:43:26.050Z,51.00
2018-07-05T06:47:41.267Z,50.10
2018-07-05T06:51:56.185Z,48.20
2018-07-05T06:56:10.905Z,47.00
2018-07-05T07:00:25.740Z,46.30
2018-07-05T07:04:40.545Z,45.10
2018-07-05T07:08:55.508Z,44.00
2018-07-05T07:13:10.456Z,43.20
2018-07-05T07:17:25.176Z,42.40
2018-07-05T07:21:39.971Z,42.10
2018-07-05T07:25:54.736Z,41.60
2018-07-05T07:30:09.642Z,41.20
2018-07-05T07:34:24.363Z,40.50
2018-07-05T07:38:39.087Z,40.10
2018-07-05T07:42:41.540Z,39.80
2018-07-05T07:46:44.372Z,39.30
2018-07-05T07:50:46.821Z,37.00
2018-07-05T07:54:49.275Z,37.40
2018-07-05T07:58:51.723Z,37.10
2018-07-05T08:02:54.167Z,37.40
2018-07-05T08:06:56.584Z,36.90
2018-07-05T08:10:59.032Z,37.00
2018-07-05T08:15:01.617Z,37.30
2018-07-05T08:19:03.973Z,36.90
2018-07-05T08:23:06.412Z,37.10
2018-07-05T08:27:08.828Z,36.90
2018-07-05T08:31:11.277Z,35.90
2018-07-05T08:35:13.759Z,36.30
2018-07-05T08:39:16.209Z,35.20
2018-07-05T08:43:18.648Z,36.10
2018-07-05T08:47:21.063Z,36.10
2018-07-05T08:51:23.516Z,35.10
2018-07-05T08:55:25.967Z,35.70
2018-07-05T08:59:28.403Z,36.40
2018-07-05T09:03:30.844Z,35.80
2018-07-05T09:07:33.288Z,35.50
2018-07-05T09:11:35.973Z,35.30
2018-07-05T09:15:38.412Z,35.90
2018-07-05T09:19:40.847Z,35.50
2018-07-05T09:23:43.347Z,36.20
2018-07-05T09:31:48.453Z,35.40
2018-07-05T09:35:50.892Z,36.30
2018-07-05T09:39:53.346Z,36.50
2018-07-05T09:43:55.755Z,36.80
2018-07-05T09:47:58.203Z,37.40
2018-07-05T09:52:01.028Z,38.00
2018-07-05T09:56:03.592Z,38.70
2018-07-05T10:00:06.105Z,39.30
2018-07-05T10:04:08.525Z,39.10
2018-07-05T10:08:10.972Z,39.50
2018-07-05T10:12:13.425Z,40.40
2018-07-05T10:16:15.881Z,39.80
2018-07-05T10:20:18.321Z,40.50
2018-07-05T10:24:20.747Z,40.20
2018-07-05T10:28:23.192Z,40.90
2018-07-05T10:32:38.255Z,41.10
2018-07-05T10:36:40.709Z,41.30
2018-07-05T10:40:55.443Z,41.20
2018-07-05T10:45:11.168Z,41.60
2018-07-05T10:49:26.018Z,41.40
2018-07-05T10:53:41.042Z,42.40
2018-07-05T10:57:56.003Z,41.90
2018-07-05T11:02:10.698Z,41.90
2018-07-05T11:06:25.661Z,42.20
2018-07-05T11:10:40.617Z,41.80
2018-07-05T11:14:55.637Z,42.80
2018-07-05T11:19:10.341Z,43.00
2018-07-05T11:23:25.170Z,42.50
2018-07-05T11:27:40.127Z,42.80
2018-07-05T11:31:54.964Z,42.80
2018-07-05T11:36:09.874Z,42.80
2018-07-05T11:40:24.655Z,42.70
2018-07-05T11:44:39.512Z,43.10
2018-07-05T11:48:54.521Z,42.70
2018-07-05T11:53:09.413Z,42.40
2018-07-05T11:57:24.239Z,42.40
2018-07-05T12:01:39.105Z,42.40
2018-07-05T12:05:54.038Z,42.40
2018-07-05T12:10:08.880Z,42.20
2018-07-05T12:14:23.636Z,42.30
2018-07-05T12:18:38.396Z,41.50
2018-07-05T12:22:53.216Z,41.40
2018-07-05T12:27:08.130Z,41.40
2018-07-05T12:31:22.883Z,41.20
2018-07-05T12:35:37.679Z,40.60
2018-07-05T12:39:52.682Z,39.90
2018-07-05T12:44:07.443Z,40.00
2018-07-05T12:48:22.465Z,40.00
2018-07-05T12:52:37.425Z,40.30
2018-07-05T12:56:52.236Z,39.60
2018-07-05T13:01:06.992Z,39.70
2018-07-05T13:05:21.858Z,39.20
2018-07-05T13:09:36.635Z,40.00
2018-07-05T13:13:51.583Z,39.20
2018-07-05T13:18:06.431Z,39.20
2018-07-05T13:22:21.289Z,39.10
2018-07-05T13:26:36.163Z,38.80
2018-07-05T13:30:51.044Z,38.50
2018-07-05T13:35:05.832Z,38.60
2018-07-05T13:39:20.547Z,38.60
2018-07-05T13:43:35.416Z,38.70
2018-07-05T13:47:50.291Z,37.70
2018-07-05T13:52:05.269Z,37.70
2018-07-05T13:56:20.173Z,37.80
2018-07-05T14:00:34.998Z,38.10
2018-07-05T14:04:49.931Z,38.00
2018-07-05T14:09:05.185Z,36.80
2018-07-05T14:13:20.025Z,36.50
2018-07-05T14:17:34.909Z,37.20
2018-07-05T14:21:49.828Z,36.80
2018-07-05T14:26:04.685Z,36.20
2018-07-05T14:30:19.527Z,36.40
2018-07-05T14:34:34.474Z,34.60
2018-07-05T14:38:49.405Z,36.10
2018-07-05T14:47:13.234Z,35.60
2018-07-05T14:51:27.992Z,35.40
2018-07-05T14:55:42.912Z,34.60
2018-07-05T14:59:57.617Z,35.60
2018-07-05T15:04:12.362Z,35.40
2018-07-05T15:08:27.106Z,34.80
2018-07-05T15:12:42.036Z,33.80
2018-07-05T15:16:57.058Z,34.70
2018-07-05T15:21:12.001Z,34.90
2018-07-05T15:25:26.803Z,34.40
2018-07-05T15:29:41.681Z,34.90
2018-07-05T15:33:56.644Z,36.10
2018-07-05T15:38:11.615Z,36.00
2018-07-05T15:42:26.524Z,36.20
2018-07-05T15:46:41.357Z,35.90
2018-07-05T15:55:37.650Z,35.90
2018-07-05T15:59:52.347Z,36.80
2018-07-05T16:04:07.484Z,36.20
2018-07-05T16:08:22.253Z,36.80
2018-07-05T16:12:36.932Z,36.50
2018-07-05T16:16:51.847Z,36.80
2018-07-05T16:21:06.597Z,36.40
2018-07-05T16:25:21.556Z,37.30
2018-07-05T16:29:36.460Z,37.80
2018-07-05T16:33:51.298Z,38.10
2018-07-05T16:38:06.255Z,38.40
2018-07-05T16:42:21.072Z,37.60
2018-07-05T16:46:36.082Z,37.80
2018-07-05T16:50:51.035Z,38.40
2018-07-05T16:55:05.931Z,38.50
2018-07-05T16:59:20.724Z,38.60
2018-07-05T17:03:35.648Z,38.10
2018-07-05T17:07:50.704Z,39.20
2018-07-05T17:12:05.640Z,39.50
2018-07-05T17:16:20.559Z,39.70
2018-07-05T17:20:35.435Z,39.70
2018-07-05T17:24:50.433Z,39.80
2018-07-05T17:29:05.369Z,40.20
2018-07-05T17:33:20.355Z,40.50
2018-07-05T17:37:35.348Z,40.80
2018-07-05T17:45:59.003Z,40.60
2018-07-05T17:50:13.921Z,41.00
2018-07-05T17:54:28.900Z,41.30
2018-07-05T17:58:43.741Z,40.60
2018-07-05T18:02:58.584Z,41.30
2018-07-05T18:07:13.554Z,42.10
2018-07-05T18:11:28.308Z,41.70
2018-07-05T18:15:43.295Z,41.90
2018-07-05T18:19:58.424Z,41.60
2018-07-05T18:24:13.283Z,42.00
2018-07-05T18:28:28.169Z,42.70
2018-07-05T18:32:42.924Z,43.60
2018-07-05T18:36:57.873Z,43.40
2018-07-05T18:41:12.603Z,43.30
2018-07-05T18:45:27.502Z,43.70
2018-07-05T18:53:52.533Z,44.50
2018-07-05T18:58:07.184Z,43.90
2018-07-05T19:02:22.209Z,43.90
2018-07-05T19:06:36.971Z,43.90
2018-07-05T19:10:51.893Z,44.30
2018-07-05T19:15:06.690Z,43.60
2018-07-05T19:19:21.541Z,44.00
2018-07-05T19:23:36.355Z,45.20
2018-07-05T19:27:51.116Z,44.30
2018-07-05T19:32:06.041Z,43.80
2018-07-05T19:36:20.987Z,44.00
2018-07-05T19:40:35.728Z,44.60
2018-07-05T19:44:50.569Z,43.90
2018-07-05T19:49:05.621Z,44.10
2018-07-05T19:53:20.561Z,43.90
2018-07-05T19:57:35.352Z,44.00
2018-07-05T20:01:50.200Z,44.00
2018-07-05T20:06:05.063Z,44.30
2018-07-05T20:10:20.112Z,44.00
2018-07-05T20:14:34.964Z,44.50
2018-07-05T20:18:49.803Z,45.10
2018-07-05T20:23:04.604Z,45.20
2018-07-05T20:27:19.521Z,46.00
2018-07-05T20:31:34.282Z,46.00
2018-07-05T20:35:49.290Z,46.00
2018-07-05T20:40:04.093Z,46.50
2018-07-05T20:44:18.982Z,47.90
2018-07-05T20:48:33.651Z,46.90
2018-07-05T20:52:48.440Z,47.10
2018-07-05T20:57:03.299Z,48.40
2018-07-05T21:01:18.213Z,47.60
2018-07-05T21:05:33.104Z,47.10
2018-07-05T21:09:48.055Z,47.10
2018-07-05T21:14:03.071Z,48.10
2018-07-05T21:18:17.917Z,47.30
2018-07-05T21:22:32.705Z,47.20
2018-07-05T21:26:47.468Z,48.80
2018-07-05T21:31:02.323Z,47.30
2018-07-05T21:35:17.364Z,48.60
2018-07-05T21:39:32.017Z,47.30
2018-07-05T21:43:46.980Z,47.20
2018-07-05T21:48:01.856Z,47.20
2018-07-05T21:52:16.788Z,48.60
2018-07-05T21:56:31.707Z,50.40
2018-07-05T22:00:46.301Z,48.30
2018-07-05T22:05:03.860Z,47.60
2018-07-05T22:09:18.747Z,47.80
2018-07-05T22:13:33.484Z,49.20
2018-07-05T22:17:53.703Z,50.30
2018-07-05T22:22:13.737Z,48.90
2018-07-05T22:26:36.829Z,48.10
2018-07-05T22:30:57.105Z,48.70
2018-07-05T22:35:11.833Z,48.10
2018-07-05T22:39:26.842Z,48.60
2018-07-05T22:43:41.724Z,48.10
2018-07-05T22:47:56.533Z,48.30
2018-07-05T22:52:11.473Z,50.30
2018-07-05T22:56:26.399Z,49.60
2018-07-05T23:00:41.213Z,50.40
2018-07-05T23:04:56.144Z,49.60
2018-07-05T23:09:10.725Z,50.40
2018-07-05T23:13:25.739Z,49.90
2018-07-05T23:17:40.574Z,49.30
2018-07-05T23:21:55.723Z,50.60
2018-07-05T23:26:10.725Z,50.40
2018-07-05T23:30:25.452Z,49.70
2018-07-05T23:34:40.146Z,49.20
2018-07-05T23:38:55.061Z,50.20
2018-07-05T23:43:09.827Z,51.90
2018-07-05T23:47:24.789Z,52.20
2018-07-05T23:51:39.721Z,55.10
2018-07-05T23:55:54.420Z,53.40
